KFNL

Fort Collins-Loveland Municipal Airport

Fort Collins/Loveland, Colorado, USA
METAR KFNL 170743Z AUTO 02003KT 3SM UP BR BKN004 OVC012 M01/M02 A2995 RMK AO2 CIG 003V007 P0000 FZRANO
Observed Flight Rules
Dec-17 @ 07:43 UTC (27 minutes ago) Instrument Flight Rules
Wind Visibility Clouds Conditions
20° at 3 knots 3 miles
  • Broken at 400' AGL
  • Overcast at 1,200' AGL
  • Mist
  • Unknown precipitation
Temperatures Readings Precipitation
Current -1°C / 30°F
Dewpoint -2°C / 28°F
Humidity 93%
Altimeter 29.95" Hg
Pressure 1014 hPa
Elevation 1529
Current Rain 0.005
METAR KFNL 170743Z AUTO 02003KT 3SM UP BR BKN004 OVC012 M01/M02 A2995 RMK AO2 CIG 003V007 P0000 FZRANO
Observed Flight Rules
Dec-17 @ 07:43 UTC
(27 minutes ago)
LIFR
Wind Visibility
20° at 3 knots 3 miles
Clouds
  • Broken at 400' AGL
  • Overcast at 1,200' AGL
Conditions
  • Mist
  • Unknown precipitation
Temperature Dewpoint
-1°C / 30°F -2°C / 28°F
Humidity Altimeter Pressure
93% 29.95" Hg 1014 hPa
Current Rain
0.005